X  Sluiten METAR luchtvaart weer gegevens      EHLW Leeuwarden Air Base
Temperatuur
15°C Temperatuur
13°C Dauwpunt
88% Vochtigheid



Wind
26 KM/U
16 MPH
7 M/S
14 KTS



210°
ZZW
Huidig weer

Wat bewolking Wat bewolking
Luchtdruk 1000.92 (hPa) - 29.56 (inHg)
Zicht 6.2 (mijl) - 10 (km)
Vliegveld
Vliegveld code EHLW

Locatie : Leeuwarden Air Base
Afstand: 30 (km)

Metar:
EHLW 200625Z AUTO 21014KT 170V230 9999 FEW015CB SCT018 BKN023 OVC040 15/13 Q1001 REDZ WHT

Tijd: 20-10-2021 08:25 CEST